KINL

Falls International-Einarson Field Airport

International Falls, Minnesota, USA
METAR KINL 191455Z AUTO 29007KT 6SM BR SCT036 BKN043 BKN050 19/19 A2993 RMK AO2 RAE26 SLP135 P0004 60008 T01940194 58000 VISNO RWY 31 $
Observed Flight Rules
Aug-19 @ 14:55 UTC (44 minutes ago) Visual Flight Rules
Wind Visibility Clouds Conditions
290° at 7 knots 6 miles
  • Scattered at 3,600' AGL
  • Broken at 4,300' AGL
  • Broken at 5,000' AGL
  • Mist
Temperatures Readings Precipitation
Current 19°C / 66°F
Dewpoint 19°C / 66°F
Humidity 100%
Altimeter 29.93" Hg
Pressure 1013.5 hPa
Elevation 360
Current Rain 0.04
METAR KINL 191455Z AUTO 29007KT 6SM BR SCT036 BKN043 BKN050 19/19 A2993 RMK AO2 RAE26 SLP135 P0004 60008 T01940194 58000 VISNO RWY 31 $
Observed Flight Rules
Aug-19 @ 14:55 UTC
(44 minutes ago)
VFR
Wind Visibility
290° at 7 knots 6 miles
Clouds
  • Scattered at 3,600' AGL
  • Broken at 4,300' AGL
  • Broken at 5,000' AGL
Conditions
  • Mist
Temperature Dewpoint
19°C / 66°F 19°C / 66°F
Humidity Altimeter Pressure
100% 29.93" Hg 1013.5 hPa
Current Rain
0.04